x

Cape Elizabeth- 45nm Nw Of Aberdeen, Wa (46041) Wave Buoy

10:50 - Wed 27th May 2015 All times are PDT. -7 hours from GMT.

  • Sig Wave height 5.6ft
  • Swell Direction
  • Peak Period 12s
  • Average Period 8s
  • Wind
    2mph, 4mph gusts
  • Sea Temp 54°f
  • Air Temp 52°f
  • Sea Pressure 1019.2mb
  • Cape Elizabeth- 45nm Nw Of Aberdeen, Wa
  • Cape Elizabeth- 45nm Nw Of Aberdeen, Wa

More Historic Weather Station data

Upgrade to MSW Pro to gain access to the past 30 days of data for over 8000 Wavebouys and Weather Stations around the globe.

Join Pro

Comparision Forecast

View Surf forecast
   
mer. 05/27 10:50 5.5ft 12s 8s 2 4 mph 1019.2mb 54f 52f
9:50 5.5ft 11s 8s 2 7 mph 1019.2mb 54f 51f
8:50 5ft 11s 8s  -  2 mph 1019mb 54f 51f
7:50 6ft 15s 8s 2 4 mph 1018.9mb 54f 51f
6:50 5.5ft 11s 8s 7 11 mph 1018.7mb 53f 51f
5:50 5ft 15s 8s 7 9 mph 1018.7mb 53f 51f
4:50 5ft 14s 8s 9 11 mph 1018.5mb 53f 51f
3:50 5ft 12s 8s 9
mph
1018.4mb 53f 51f
2:50 5ft 15s 8s 7 9 mph 1018.5mb 54f 50f
1:50 5ft 12s 8s 7 11 mph 1018.4mb 54f 51f
12:50 5ft 12s 8s 9 11 mph 1018.4mb 54f 51f
mar. 05/26 11:50 4.5ft 13s 7s 7 9 mph 1018.3mb 54f 51f
10:50 4.5ft 16s 7s 7 9 mph 1018.2mb 55f 51f
9:50 5ft 15s 8s 9
mph
1018.1mb 54f 51f
8:50 4.5ft 13s 7s 7 11 mph 1017.7mb 54f 52f
7:50 4ft 12s 7s 4 7 mph 1017.5mb 55f 52f
6:50 4.5ft 7s 7s 4 9 mph 1017.7mb 54f 52f
5:50 4.5ft 8s 7s 4 7 mph 1017.8mb 54f 53f
4:50 4.5ft 8s 7s 4 7 mph 1018.3mb 54f 53f
3:50 4.5ft 8s 7s 4
mph
1018.6mb 54f 53f
2:50 4.5ft 8s 7s 7
mph
1018.8mb 54f 53f
1:50 4.5ft 8s 6s 2 4 mph 1018.9mb 55f 54f
12:50 4.5ft 8s 7s 2
mph
1018.9mb 54f 53f
11:50 4.5ft 8s 7s 2 4 mph 1018.7mb 53f 53f
10:50 4.5ft 9s 7s 2
mph
1018.5mb 53f 53f
9:50 4.5ft 8s 7s 4
mph
1018.3mb 53f 52f
8:50 5ft 7s 6s 2
mph
1018.2mb 53f 52f
7:50 4.5ft 8s 6s 4
mph
1018mb 53f 52f
6:50 5ft 7s 6s 4
mph
1017.6mb 53f 52f
5:50 4.5ft 7s 6s 2 4 mph 1017.4mb 53f 52f
4:50 5ft 8s 6s 4
mph
1017.1mb 53f 52f
3:50 4.5ft 8s 6s 4 7 mph 1017.1mb 53f 52f
2:50 4.5ft 9s 6s 2
mph
1017.2mb 53f 52f
1:50 5ft 8s 6s  -  2 mph 1017.1mb 53f 52f
12:50 5ft 7s 6s 2
mph
1017mb 53f 52f
lun. 05/25 11:50 5ft 8s 6s 7 9 mph 1016.9mb 53f 52f
10:50 5ft 10s 7s 9
mph
1016.9mb 53f 52f
9:50 5ft 10s 6s 11 13 mph 1016.8mb 53f 52f
8:50 5ft 8s 6s 13 16 mph 1016.5mb 53f 53f
7:50 5.5ft 8s 7s 13 16 mph 1016.6mb 54f 53f
6:50 5ft 8s 7s 11 16 mph 1016.6mb 54f 53f
5:50 6ft 8s 7s 9 13 mph 1016.9mb 54f 53f
4:50 5ft 11s 6s 7 11 mph 1017.1mb 54f 53f
3:50 6ft 8s 6s 9 11 mph 1017.1mb 54f 53f
2:50 6ft 9s 6s 9 11 mph 1017.4mb 54f 53f
1:50 6ft 8s 6s 9 11 mph 1017.3mb 54f 52f
12:50 5.5ft 11s 6s 9 11 mph 1017.3mb 54f 52f
11:50 6ft 8s 7s 9
mph
1017mb 54f 52f
10:50 6ft 8s 7s 7 9 mph 1016.9mb 54f 52f
9:50 5.5ft 8s 7s 4 7 mph 1016.8mb 54f 51f
8:50 5ft 8s 6s 4 7 mph 1016.6mb 54f 51f
7:50 5ft 8s 7s 7 9 mph 1016.2mb 54f 51f
6:50 5ft 8s 6s 11 13 mph 1016mb 54f 51f
5:50 5ft 8s 6s 7 9 mph 1016.3mb 54f 52f
4:50 5ft 7s 6s 9 13 mph 1016.3mb 54f 52f
3:50 5ft 11s 6s 11 13 mph 1016.5mb 54f 52f
2:50 5ft 11s 6s 11 13 mph 1016.6mb 54f 52f
1:50 5ft 8s 6s 9 11 mph 1017mb 54f 52f
12:50 5ft 8s 6s 11 13 mph 1017.2mb 54f 52f
dim. 05/24 11:50 5.5ft 8s 6s 11 16 mph 1017.4mb 54f 52f
10:50 5.5ft 8s 6s 13 18 mph 1017.6mb 54f 52f
9:50 5ft 8s 6s 16 18 mph 1017.7mb 55f 52f
8:50 5ft 7s 6s 13 18 mph 1017.5mb 55f 52f
7:50 4.5ft 8s 6s 13 16 mph 1017.7mb 55f 53f
6:50 5ft 11s 6s 11 13 mph 1018mb 55f 52f
5:50 5ft 8s 7s 13 16 mph 1018.4mb 55f 52f
4:50 5ft 8s 6s 11 13 mph 1019mb 55f 52f
3:50 5ft 8s 6s 7 9 mph 1019.6mb 55f 52f
2:50 4.5ft 8s 6s 7
mph
1020mb 55f 52f
1:50 5ft 8s 6s 7 9 mph 1020.7mb 55f 51f
12:50 4.5ft 8s 6s 11 13 mph 1021mb 55f 51f
11:50 5ft 8s 6s 11 13 mph 1021.3mb 54f 50f
10:50 5ft 11s 6s 9 11 mph 1021.5mb 54f 52f
9:50 5ft 11s 6s 13 16 mph 1021.8mb 54f 51f
8:50 4.5ft 7s 6s 11 13 mph 1021.8mb 54f 52f
7:50 4.5ft 11s 6s 11 16 mph 1021.8mb 54f 51f
6:50 4.5ft 11s 6s 9 13 mph 1021.9mb 54f 51f
5:50 4.5ft 11s 6s 13 18 mph 1021.9mb 54f 52f
4:50 4.5ft 11s 6s 11 13 mph 1021.8mb 54f 51f
3:50 5ft 12s 6s 16 18 mph 1021.8mb 54f 51f
2:50 4.5ft 11s 6s 13 18 mph 1022mb 54f 51f
1:50 4.5ft 8s 6s 13 16 mph 1022.8mb 54f 51f
12:50 4.5ft 10s 6s 13 16 mph 1023.1mb 54f 52f
sam. 05/23 11:50 4.5ft 11s 6s 11 13 mph 1023mb 54f 52f
10:50 4.5ft 12s 6s 11 13 mph 1022.9mb 54f 52f
9:50 4.5ft 12s 6s 7 11 mph 1023mb 54f 52f
8:50 4.5ft 12s 6s 11
mph
1022.6mb 54f 51f
7:50 4.5ft 12s 6s 11 13 mph 1022.2mb 55f 52f